Time;durP1;ratioP1;P1;durP2;ratioP2;P2;SDS_P1;SDS_P2;PMS_P1;PMS_P2;Temp;Humidity;BMP_temperature;BMP_pressure;BME280_temperature;BME280_humidity;BME280_pressure;Samples;Min_cycle;Max_cycle;Signal;HPM_P1;HPM_P2
2023/01/11 00:01:20;;;;;;;1.10;1.00;;;17.10;83.80;;;;;;5071052;28;20276;-66
2023/01/11 00:04:08;;;;;;;1.98;1.30;;;17.10;85.10;;;;;;5071315;28;20276;-64
2023/01/11 00:06:56;;;;;;;1.60;0.90;;;17.00;85.80;;;;;;5071273;28;20277;-68
2023/01/11 00:09:46;;;;;;;2.17;1.30;;;17.10;86.00;;;;;;5069662;28;20225;-67
2023/01/11 00:12:36;;;;;;;4.22;1.50;;;17.10;86.10;;;;;;5071499;28;20302;-65
2023/01/11 00:15:24;;;;;;;2.83;1.63;;;17.00;86.00;;;;;;5063527;28;20197;-68
2023/01/11 00:18:12;;;;;;;3.92;1.30;;;17.10;86.10;;;;;;5065923;28;20204;-68
2023/01/11 00:21:04;;;;;;;3.03;1.20;;;17.10;85.90;;;;;;5057602;28;20198;-67
2023/01/11 00:23:52;;;;;;;2.50;1.10;;;17.10;85.90;;;;;;5054790;28;20208;-64
2023/01/11 00:26:40;;;;;;;1.63;1.23;;;17.20;85.90;;;;;;5054039;28;20594;-63
2023/01/11 00:29:29;;;;;;;2.20;1.30;;;17.20;85.80;;;;;;5052483;28;20308;-63
2023/01/11 00:32:17;;;;;;;1.40;1.10;;;17.20;85.70;;;;;;5054948;28;20251;-63
2023/01/11 00:35:07;;;;;;;7.25;1.40;;;17.30;85.50;;;;;;5068071;28;20233;-66
2023/01/11 00:37:55;;;;;;;1.40;1.30;;;17.30;84.70;;;;;;5074076;28;20205;-67
2023/01/11 00:40:43;;;;;;;2.85;1.30;;;17.30;84.70;;;;;;5073588;28;20196;-67
2023/01/11 00:49:40;;;;;;;1.25;1.15;;;17.30;84.90;;;;;;5073406;28;20261;-66
2023/01/11 00:52:28;;;;;;;1.40;1.30;;;17.40;84.90;;;;;;5073759;28;20287;-66
2023/01/11 00:55:17;;;;;;;1.83;1.27;;;17.40;84.80;;;;;;5073658;28;20276;-66
2023/01/11 00:58:05;;;;;;;3.17;1.58;;;17.30;83.40;;;;;;5073630;28;20642;-64
2023/01/11 01:00:53;;;;;;;2.65;1.33;;;17.30;83.80;;;;;;5073434;28;20272;-64
2023/01/11 01:03:43;;;;;;;4.20;1.30;;;17.20;83.30;;;;;;5073458;28;20201;-65
2023/01/11 01:06:31;;;;;;;1.50;1.40;;;17.40;83.70;;;;;;5073514;28;20196;-64
2023/01/11 01:09:19;;;;;;;2.55;1.52;;;17.20;83.40;;;;;;5072485;28;20231;-66
2023/01/11 01:12:08;;;;;;;1.50;1.30;;;17.20;83.30;;;;;;5073294;28;20299;-67
2023/01/11 01:14:55;;;;;;;3.20;1.35;;;17.10;83.30;;;;;;5074013;28;20197;-65
2023/01/11 01:17:44;;;;;;;1.55;1.38;;;17.10;83.90;;;;;;5073853;28;20307;-67
2023/01/11 01:20:34;;;;;;;1.27;1.17;;;17.00;85.20;;;;;;5073424;28;20225;-66
2023/01/11 01:23:22;;;;;;;1.52;1.10;;;17.00;85.50;;;;;;5073771;28;20755;-64
2023/01/11 01:26:10;;;;;;;5.40;1.50;;;17.20;96.30;;;;;;5072849;28;20699;-64
2023/01/11 01:28:58;;;;;;;3.38;1.35;;;16.90;85.50;;;;;;5073585;28;20303;-63
2023/01/11 01:31:46;;;;;;;1.85;1.05;;;17.00;85.60;;;;;;5072373;28;20220;-66
2023/01/11 01:34:36;;;;;;;1.98;1.30;;;17.10;85.70;;;;;;5071804;28;20225;-67
2023/01/11 01:37:25;;;;;;;1.38;1.00;;;17.10;85.50;;;;;;5073520;28;20273;-64
2023/01/11 01:40:14;;;;;;;1.85;1.27;;;17.10;85.50;;;;;;5073335;28;20217;-64
2023/01/11 01:43:02;;;;;;;1.52;1.30;;;17.20;85.30;;;;;;5073437;28;20233;-65
2023/01/11 01:45:51;;;;;;;1.95;1.00;;;17.20;85.30;;;;;;5073423;28;20285;-66
2023/01/11 01:48:43;;;;;;;2.38;1.10;;;17.30;85.10;;;;;;5073210;28;20640;-65
2023/01/11 01:51:38;;;;;;;1.67;1.20;;;17.30;85.00;;;;;;5072867;28;20292;-67
2023/01/11 01:54:34;;;;;;;1.40;1.00;;;17.30;84.80;;;;;;5071926;28;20279;-63
2023/01/11 01:57:28;;;;;;;2.55;1.25;;;17.40;84.80;;;;;;5071633;28;20633;-67
2023/01/11 02:00:17;;;;;;;1.75;1.17;;;17.40;84.60;;;;;;5072730;28;20265;-65
2023/01/11 02:03:06;;;;;;;1.13;0.90;;;17.40;84.30;;;;;;5072350;28;20288;-65
2023/01/11 02:05:54;;;;;;;1.20;1.08;;;17.40;84.20;;;;;;5072988;28;20200;-64
2023/01/11 02:08:48;;;;;;;1.67;1.30;;;17.40;83.30;;;;;;5072704;28;20656;-63
2023/01/11 02:11:42;;;;;;;3.00;1.30;;;17.40;83.10;;;;;;5059580;28;20323;-63
2023/01/11 02:14:31;;;;;;;2.03;1.38;;;17.40;82.80;;;;;;5052138;28;20205;-66
2023/01/11 02:17:20;;;;;;;1.65;1.20;;;17.40;83.40;;;;;;5051884;28;20233;-65
2023/01/11 02:20:28;;;;;;;2.50;1.40;;;17.40;83.70;;;;;;5051760;28;20303;-65
2023/01/11 02:23:52;;;;;;;1.35;1.17;;;17.30;82.60;;;;;;5051533;28;20201;-64
2023/01/11 02:27:09;;;;;;;1.05;0.95;;;17.30;82.30;;;;;;5052194;28;20286;-65
2023/01/11 02:30:12;;;;;;;1.50;1.27;;;17.30;83.30;;;;;;5051392;28;20308;-64
2023/01/11 02:33:09;;;;;;;1.80;1.08;;;17.30;83.80;;;;;;5051301;28;20220;-62
2023/01/11 02:36:13;;;;;;;2.97;1.50;;;17.20;84.40;;;;;;5051155;28;20564;-63
2023/01/11 02:39:08;;;;;;;1.63;1.20;;;17.10;83.70;;;;;;5057389;28;20307;-63
2023/01/11 02:45:19;;;;;;;1.33;1.02;;;17.00;82.80;;;;;;5051223;28;20254;-66
2023/01/11 02:48:16;;;;;;;1.50;0.90;;;17.10;84.60;;;;;;5052228;28;20725;-67
2023/01/11 02:51:08;;;;;;;2.35;0.93;;;17.00;84.80;;;;;;5051240;28;20694;-65
2023/01/11 02:54:01;;;;;;;2.00;1.20;;;17.00;84.90;;;;;;5051548;28;20205;-63
2023/01/11 02:56:53;;;;;;;2.75;1.08;;;17.00;85.00;;;;;;5051807;28;20209;-64
2023/01/11 02:59:41;;;;;;;2.00;1.10;;;17.00;85.00;;;;;;5051066;28;20270;-67
2023/01/11 03:02:31;;;;;;;2.40;1.00;;;17.10;85.00;;;;;;5051504;28;20277;-66
2023/01/11 03:05:19;;;;;;;2.72;1.20;;;17.00;84.90;;;;;;5051353;28;20208;-65
2023/01/11 03:08:20;;;;;;;1.42;1.00;;;17.20;85.00;;;;;;5051858;28;20204;-67
2023/01/11 03:11:13;;;;;;;1.70;0.98;;;17.00;84.60;;;;;;5059267;28;20225;-66
2023/01/11 03:14:07;;;;;;;1.77;1.20;;;17.10;84.60;;;;;;5071350;28;20316;-66
2023/01/11 03:17:03;;;;;;;2.70;1.20;;;17.20;84.60;;;;;;5071277;28;20196;-67
2023/01/11 03:19:56;;;;;;;1.33;0.90;;;17.20;84.50;;;;;;5070848;28;20305;-65
2023/01/11 03:22:57;;;;;;;2.22;1.30;;;17.20;84.40;;;;;;5071112;28;20280;-66
2023/01/11 03:25:55;;;;;;;1.45;1.08;;;17.20;84.30;;;;;;5071344;28;20196;-67
2023/01/11 03:28:52;;;;;;;2.83;1.17;;;17.30;84.20;;;;;;5070495;28;20252;-67
2023/01/11 03:31:48;;;;;;;2.13;1.30;;;17.30;83.80;;;;;;5071033;28;20216;-64
2023/01/11 03:34:40;;;;;;;2.28;1.40;;;17.30;84.00;;;;;;5071048;28;20335;-66
2023/01/11 03:37:35;;;;;;;1.95;1.10;;;17.40;83.90;;;;;;5070962;28;20327;-67
2023/01/11 03:40:28;;;;;;;2.40;1.10;;;17.40;83.90;;;;;;5070648;28;20362;-65
2023/01/11 03:43:19;;;;;;;1.15;0.93;;;17.40;83.90;;;;;;5071151;28;20201;-67
2023/01/11 03:46:12;;;;;;;2.10;1.02;;;17.30;83.80;;;;;;5071000;28;20261;-66
2023/01/11 03:49:04;;;;;;;3.20;1.55;;;17.40;83.80;;;;;;5070734;28;20834;-67
2023/01/11 03:51:56;;;;;;;2.88;1.00;;;17.40;83.80;;;;;;5075040;28;20358;-66
2023/01/11 03:54:45;;;;;;;1.52;1.15;;;17.30;83.20;;;;;;5075166;28;20280;-68
2023/01/11 03:57:37;;;;;;;1.63;1.00;;;17.30;83.30;;;;;;5074909;28;20591;-68
2023/01/11 04:00:26;;;;;;;3.25;1.45;;;17.30;82.80;;;;;;5074339;28;20228;-67
2023/01/11 04:03:14;;;;;;;2.28;1.00;;;17.20;83.30;;;;;;5074668;28;20280;-66
2023/01/11 04:06:03;;;;;;;1.67;1.35;;;17.10;83.50;;;;;;5074674;28;20282;-65
2023/01/11 04:08:51;;;;;;;1.30;1.00;;;17.10;84.30;;;;;;5073806;28;20311;-65
2023/01/11 04:11:40;;;;;;;4.32;1.33;;;17.00;84.40;;;;;;5074544;28;20594;-64
2023/01/11 04:14:28;;;;;;;1.52;0.90;;;17.00;84.50;;;;;;5074489;28;20322;-65
2023/01/11 04:17:16;;;;;;;1.10;1.00;;;17.00;84.60;;;;;;5074971;28;20285;-66
2023/01/11 04:20:05;;;;;;;1.77;1.23;;;17.00;84.70;;;;;;5074080;28;20304;-66
2023/01/11 04:22:53;;;;;;;2.85;2.00;;;17.00;84.60;;;;;;5074458;28;20189;-67
2023/01/11 04:25:41;;;;;;;4.63;1.23;;;17.00;84.70;;;;;;5074607;28;20287;-68
2023/01/11 04:28:31;;;;;;;2.03;0.90;;;17.40;97.00;;;;;;5074224;28;20280;-66
2023/01/11 04:31:19;;;;;;;1.20;1.10;;;17.10;84.60;;;;;;5074489;28;20213;-67
2023/01/11 04:34:07;;;;;;;2.35;1.10;;;17.10;84.50;;;;;;5073771;28;20197;-64
2023/01/11 04:36:55;;;;;;;2.00;1.10;;;17.10;84.40;;;;;;5073792;28;20285;-68
2023/01/11 04:39:43;;;;;;;1.65;1.05;;;17.20;84.40;;;;;;5074314;28;20220;-68
2023/01/11 04:42:30;;;;;;;1.75;1.13;;;17.20;84.30;;;;;;5074112;28;20193;-67
2023/01/11 04:45:20;;;;;;;1.67;1.00;;;17.30;84.30;;;;;;5074175;28;20673;-66
2023/01/11 04:48:08;;;;;;;2.33;1.25;;;17.30;84.20;;;;;;5057984;28;20729;-67
2023/01/11 04:50:56;;;;;;;0.82;0.80;;;17.30;84.10;;;;;;5053389;28;20267;-67
2023/01/11 04:53:46;;;;;;;2.03;1.20;;;17.30;83.90;;;;;;5054283;28;20675;-67
2023/01/11 04:56:35;;;;;;;1.98;0.90;;;17.40;84.10;;;;;;5052528;28;20237;-67
2023/01/11 04:59:23;;;;;;;1.67;1.00;;;17.40;83.80;;;;;;5053393;28;20225;-67
2023/01/11 05:02:12;;;;;;;1.10;0.90;;;17.40;83.40;;;;;;5052977;28;20275;-66
2023/01/11 05:05:00;;;;;;;1.35;1.00;;;17.40;83.10;;;;;;5052787;28;20286;-67
2023/01/11 05:07:48;;;;;;;2.35;1.00;;;17.40;83.40;;;;;;5054129;28;20278;-68
2023/01/11 05:10:36;;;;;;;1.42;0.82;;;17.30;83.30;;;;;;5057236;28;20784;-68
2023/01/11 05:13:40;;;;;;;1.98;1.20;;;17.30;82.90;;;;;;5073177;28;20232;-68
2023/01/11 05:16:28;;;;;;;1.70;1.10;;;17.30;83.10;;;;;;5073898;28;20201;-67
2023/01/11 05:19:18;;;;;;;2.70;1.02;;;17.30;83.30;;;;;;5073487;28;20354;-66
2023/01/11 05:22:06;;;;;;;1.10;0.90;;;17.30;83.20;;;;;;5073345;28;20285;-68
2023/01/11 05:24:54;;;;;;;1.58;1.00;;;17.20;83.40;;;;;;5073838;28;20667;-67
2023/01/11 05:27:42;;;;;;;2.35;1.13;;;17.20;83.90;;;;;;5073269;28;20208;-66
2023/01/11 05:30:30;;;;;;;1.48;0.90;;;17.10;84.00;;;;;;5073411;28;20693;-66
2023/01/11 05:33:18;;;;;;;1.13;0.88;;;17.20;84.20;;;;;;5073674;28;20269;-67
2023/01/11 05:36:11;;;;;;;1.15;0.85;;;17.00;84.20;;;;;;5073482;28;20276;-67
2023/01/11 05:38:59;;;;;;;1.80;0.90;;;17.10;84.40;;;;;;5072034;28;20223;-65
2023/01/11 05:41:47;;;;;;;1.30;0.82;;;17.00;84.50;;;;;;5073460;28;20250;-65
2023/01/11 05:47:44;;;;;;;1.10;0.85;;;17.00;84.50;;;;;;5072216;28;20350;-67
2023/01/11 05:50:32;;;;;;;1.75;1.00;;;17.10;84.60;;;;;;5072956;28;20222;-67
2023/01/11 05:53:23;;;;;;;2.58;1.00;;;17.00;84.50;;;;;;5072511;28;20304;-65
2023/01/11 05:56:11;;;;;;;1.20;1.00;;;17.00;84.40;;;;;;5073195;28;20207;-66
2023/01/11 05:59:00;;;;;;;2.60;1.10;;;17.00;84.30;;;;;;5072329;28;20594;-64
2023/01/11 06:01:48;;;;;;;0.70;0.70;;;17.00;84.30;;;;;;5073287;28;20236;-64
2023/01/11 06:04:36;;;;;;;1.20;1.00;;;17.10;84.30;;;;;;5072934;28;20235;-65
2023/01/11 06:07:24;;;;;;;1.20;1.00;;;17.10;84.30;;;;;;5072806;28;20298;-64
2023/01/11 06:10:14;;;;;;;1.90;0.80;;;17.10;84.20;;;;;;5070349;28;20764;-67
2023/01/11 06:16:06;;;;;;;2.20;0.90;;;17.30;84.00;;;;;;5052375;28;20250;-63
2023/01/11 06:18:55;;;;;;;1.60;1.00;;;17.30;84.00;;;;;;5051537;28;20249;-66
2023/01/11 06:21:43;;;;;;;1.23;1.13;;;17.30;84.00;;;;;;5052163;28;20279;-65
2023/01/11 06:24:31;;;;;;;3.20;0.98;;;17.30;83.90;;;;;;5051638;28;20197;-64
2023/01/11 06:27:20;;;;;;;1.92;1.10;;;17.30;83.70;;;;;;5052177;28;20696;-67
2023/01/11 06:30:10;;;;;;;6.90;1.30;;;17.30;83.80;;;;;;5052096;28;20698;-67
2023/01/11 06:33:04;;;;;;;1.85;1.08;;;17.30;83.90;;;;;;5051477;28;20300;-67
2023/01/11 06:35:52;;;;;;;25.67;4.38;;;17.20;83.70;;;;;;5051132;28;20208;-67
2023/01/11 06:38:41;;;;;;;3.40;1.13;;;17.20;83.20;;;;;;5051035;28;20298;-66
2023/01/11 06:41:29;;;;;;;16.85;3.45;;;17.20;84.20;;;;;;5051586;28;20197;-65
2023/01/11 06:44:19;;;;;;;9.98;2.13;;;17.10;84.40;;;;;;5052264;28;20553;-65
2023/01/11 06:47:07;;;;;;;5.47;1.50;;;17.10;84.50;;;;;;5051085;28;20276;-64
2023/01/11 06:49:55;;;;;;;3.25;1.23;;;17.10;84.70;;;;;;5051849;28;20329;-64
2023/01/11 06:52:43;;;;;;;7.72;1.83;;;17.00;84.70;;;;;;5051567;28;20296;-64
2023/01/11 06:55:31;;;;;;;4.25;1.92;;;17.00;84.70;;;;;;5050709;28;20331;-63
2023/01/11 06:58:22;;;;;;;7.95;1.65;;;16.90;94.80;;;;;;5051422;28;20323;-65
2023/01/11 07:01:11;;;;;;;6.75;1.90;;;17.00;84.70;;;;;;5050690;28;20198;-66
2023/01/11 07:03:59;;;;;;;8.20;2.20;;;17.00;84.70;;;;;;5051540;28;20609;-64
2023/01/11 07:06:47;;;;;;;5.97;2.47;;;17.10;84.70;;;;;;5063970;28;20242;-65
2023/01/11 07:09:36;;;;;;;7.03;1.75;;;17.10;84.50;;;;;;5062623;28;20277;-67
2023/01/11 07:12:24;;;;;;;3.92;1.77;;;17.10;84.50;;;;;;5062405;28;20690;-67
2023/01/11 07:15:12;;;;;;;4.55;1.50;;;17.20;84.60;;;;;;5067818;28;20201;-66
2023/01/11 07:18:02;;;;;;;7.35;1.63;;;17.10;84.40;;;;;;5063702;28;20318;-66
2023/01/11 07:20:50;;;;;;;13.30;2.08;;;17.20;84.40;;;;;;5071047;28;20707;-67
2023/01/11 07:23:38;;;;;;;18.67;2.10;;;17.30;84.40;;;;;;5071103;28;20199;-66
2023/01/11 07:26:27;;;;;;;23.02;4.28;;;17.30;84.20;;;;;;5071025;28;20293;-67
2023/01/11 07:29:15;;;;;;;22.52;3.85;;;17.40;84.20;;;;;;5070804;28;20224;-65
2023/01/11 07:32:04;;;;;;;14.48;3.22;;;17.40;84.30;;;;;;5051219;28;20287;-66
2023/01/11 07:34:53;;;;;;;11.30;2.97;;;17.40;84.40;;;;;;5050947;28;20193;-67
2023/01/11 07:37:41;;;;;;;9.13;2.30;;;17.30;84.40;;;;;;5050988;28;20204;-66
2023/01/11 07:40:29;;;;;;;51.25;8.48;;;17.40;84.60;;;;;;5050019;28;20228;-66
2023/01/11 07:43:18;;;;;;;22.63;4.32;;;17.30;84.40;;;;;;5051365;28;20189;-67
2023/01/11 07:46:06;;;;;;;21.42;2.75;;;17.30;84.60;;;;;;5051571;28;20732;-67
2023/01/11 07:48:54;;;;;;;10.50;2.28;;;17.30;84.60;;;;;;5050789;28;20228;-67
2023/01/11 07:51:44;;;;;;;5.75;2.10;;;17.30;84.70;;;;;;5051313;28;20245;-67
2023/01/11 07:54:31;;;;;;;13.30;2.67;;;17.30;84.80;;;;;;5050748;28;20217;-66
2023/01/11 07:57:19;;;;;;;6.50;2.15;;;17.30;84.70;;;;;;5051513;28;20286;-66
2023/01/11 08:00:09;;;;;;;9.90;2.33;;;17.20;84.90;;;;;;5049870;28;20756;-65
2023/01/11 08:02:57;;;;;;;17.08;2.25;;;17.20;85.00;;;;;;5051464;28;20201;-63
2023/01/11 08:05:49;;;;;;;41.85;5.25;;;17.10;85.10;;;;;;5050703;28;20197;-67
2023/01/11 08:08:38;;;;;;;18.20;3.13;;;17.10;97.50;;;;;;5049896;28;20190;-65
2023/01/11 08:14:41;;;;;;;19.40;3.63;;;17.10;85.40;;;;;;5050677;28;20689;-67
2023/01/11 08:17:29;;;;;;;14.35;3.17;;;17.00;85.40;;;;;;5050601;28;20229;-66
2023/01/11 08:20:19;;;;;;;12.93;2.58;;;17.10;85.50;;;;;;5050289;28;20221;-65
2023/01/11 08:23:09;;;;;;;13.65;2.20;;;17.10;85.40;;;;;;5049980;28;20193;-64
2023/01/11 08:25:59;;;;;;;8.80;2.25;;;17.10;85.40;;;;;;5050000;28;20202;-67
2023/01/11 08:28:47;;;;;;;15.15;2.10;;;17.20;85.40;;;;;;5050494;28;20348;-66
2023/01/11 08:31:35;;;;;;;13.57;3.40;;;17.30;85.40;;;;;;5050511;28;20259;-67
2023/01/11 08:34:23;;;;;;;10.63;2.80;;;17.30;85.20;;;;;;5050478;28;20285;-67
2023/01/11 08:37:11;;;;;;;13.88;1.92;;;17.40;85.10;;;;;;5051644;28;20232;-67
2023/01/11 08:39:59;;;;;;;14.45;3.17;;;17.40;85.00;;;;;;5053240;28;20218;-66
2023/01/11 08:42:48;;;;;;;8.65;3.25;;;17.40;84.90;;;;;;5054005;28;20205;-65
2023/01/11 08:45:36;;;;;;;7.90;2.60;;;17.40;84.80;;;;;;5054005;28;20725;-67
2023/01/11 08:48:24;;;;;;;11.15;2.30;;;17.70;94.80;;;;;;5053423;28;20624;-67
2023/01/11 08:51:13;;;;;;;8.45;2.15;;;17.40;84.90;;;;;;5053019;28;20201;-64
2023/01/11 08:54:01;;;;;;;4.13;1.90;;;17.50;85.00;;;;;;5053538;28;20303;-62
2023/01/11 08:56:49;;;;;;;12.63;2.45;;;17.40;84.90;;;;;;5053651;28;20332;-64
2023/01/11 08:59:38;;;;;;;8.88;2.15;;;17.40;85.10;;;;;;5053775;28;20307;-66
2023/01/11 09:02:26;;;;;;;7.65;2.70;;;17.40;86.30;;;;;;5053376;28;20287;-64
2023/01/11 09:05:15;;;;;;;7.85;2.20;;;17.30;86.60;;;;;;5053010;28;20194;-64
2023/01/11 09:08:05;;;;;;;14.18;2.10;;;17.30;86.90;;;;;;5067964;28;20200;-67
2023/01/11 09:10:55;;;;;;;4.72;1.70;;;17.40;86.70;;;;;;5071976;28;20285;-64
2023/01/11 09:13:43;;;;;;;9.10;2.90;;;17.30;87.00;;;;;;5073392;28;20621;-66
2023/01/11 09:16:32;;;;;;;15.98;2.22;;;17.30;86.90;;;;;;5073358;28;20302;-66
2023/01/11 09:19:21;;;;;;;7.28;2.08;;;17.30;86.80;;;;;;5072283;28;20224;-65
2023/01/11 09:22:09;;;;;;;18.92;2.85;;;17.20;86.70;;;;;;5072787;28;20209;-67
2023/01/11 09:24:59;;;;;;;12.70;2.50;;;17.20;86.90;;;;;;5071987;28;20804;-68
2023/01/11 09:27:48;;;;;;;7.72;2.15;;;17.30;87.10;;;;;;5071965;28;20684;-66
2023/01/11 09:30:38;;;;;;;18.33;3.38;;;17.30;87.10;;;;;;5070400;28;20224;-66
2023/01/11 09:33:27;;;;;;;12.55;2.67;;;17.30;87.10;;;;;;5072162;28;20228;-64
2023/01/11 09:36:17;;;;;;;11.02;3.30;;;17.20;87.00;;;;;;5069513;28;20268;-66
2023/01/11 09:39:09;;;;;;;15.63;3.78;;;17.30;86.90;;;;;;5071333;28;20299;-65
2023/01/11 09:42:30;;;;;;;15.18;4.05;;;17.30;87.30;;;;;;5073319;28;20628;-67
2023/01/11 09:45:21;;;;;;;23.08;3.63;;;17.40;87.30;;;;;;5068835;28;20197;-68
2023/01/11 09:48:25;;;;;;;13.40;3.22;;;17.60;87.20;;;;;;5071933;28;20204;-65
2023/01/11 09:51:17;;;;;;;11.82;2.60;;;17.80;87.20;;;;;;5072536;28;20620;-66
2023/01/11 09:54:09;;;;;;;12.95;2.47;;;18.00;87.00;;;;;;5072566;28;20262;-65
2023/01/11 09:57:25;;;;;;;7.00;2.92;;;18.10;86.70;;;;;;5072692;28;20208;-64
2023/01/11 10:00:25;;;;;;;19.70;3.47;;;18.30;86.30;;;;;;5072263;28;20262;-65
2023/01/11 10:03:37;;;;;;;10.48;2.45;;;18.50;86.00;;;;;;5072656;28;20201;-67
2023/01/11 10:06:33;;;;;;;14.45;3.95;;;18.70;85.70;;;;;;5068296;28;20193;-66
2023/01/11 10:09:33;;;;;;;7.53;3.50;;;18.70;85.30;;;;;;5051912;28;20291;-67
2023/01/11 10:12:47;;;;;;;13.60;2.78;;;18.80;85.30;;;;;;5051998;28;20216;-65
2023/01/11 10:16:04;;;;;;;10.63;3.00;;;18.90;84.90;;;;;;5052312;28;20225;-65
2023/01/11 10:19:18;;;;;;;13.77;4.40;;;19.00;84.80;;;;;;5051984;28;20222;-63
2023/01/11 10:22:35;;;;;;;24.20;3.60;;;19.20;84.80;;;;;;5070214;28;20695;-62
2023/01/11 10:25:32;;;;;;;18.73;2.95;;;19.30;84.40;;;;;;5070062;28;20268;-64
2023/01/11 10:28:28;;;;;;;16.27;3.47;;;19.30;93.10;;;;;;5072573;28;20224;-63
2023/01/11 10:31:28;;;;;;;10.13;2.70;;;19.50;84.00;;;;;;5071823;28;20276;-62
2023/01/11 10:34:40;;;;;;;16.67;3.10;;;19.60;84.00;;;;;;5053570;28;20214;-62
2023/01/11 10:37:58;;;;;;;14.27;2.40;;;19.80;83.90;;;;;;5053749;28;20276;-62
2023/01/11 10:41:07;;;;;;;11.23;2.45;;;19.90;83.40;;;;;;5053112;28;20216;-62
2023/01/11 10:44:03;;;;;;;12.85;3.20;;;19.90;83.00;;;;;;5052294;28;20194;-60
2023/01/11 10:46:55;;;;;;;15.52;2.45;;;20.00;82.90;;;;;;5052825;28;20205;-61
2023/01/11 10:49:48;;;;;;;10.50;2.13;;;20.00;82.70;;;;;;5052561;28;20221;-60
2023/01/11 10:52:46;;;;;;;11.18;2.78;;;20.00;82.60;;;;;;5067844;28;20209;-61
2023/01/11 10:55:44;;;;;;;9.75;2.70;;;20.00;82.60;;;;;;5072793;28;20228;-62
2023/01/11 10:58:45;;;;;;;8.32;2.03;;;20.30;95.40;;;;;;5072017;28;20284;-61
2023/01/11 11:01:49;;;;;;;16.40;2.88;;;20.20;82.60;;;;;;5072145;28;20524;-62
2023/01/11 11:05:03;;;;;;;7.40;2.75;;;20.30;82.50;;;;;;5072993;28;20200;-62
2023/01/11 11:07:58;;;;;;;12.38;2.58;;;20.30;82.20;;;;;;5065830;28;20212;-63
2023/01/11 11:10:53;;;;;;;15.77;2.35;;;20.20;82.40;;;;;;5064889;28;20293;-63
2023/01/11 11:13:53;;;;;;;8.05;2.50;;;20.30;82.60;;;;;;5072452;28;20197;-60
2023/01/11 11:16:52;;;;;;;14.57;2.78;;;20.30;82.60;;;;;;5073304;28;20279;-63
2023/01/11 11:19:40;;;;;;;9.63;2.75;;;20.40;82.70;;;;;;5072634;28;20738;-63
2023/01/11 11:22:29;;;;;;;16.92;3.15;;;20.40;82.70;;;;;;5072498;28;20376;-63
2023/01/11 11:25:21;;;;;;;14.13;3.00;;;20.50;82.70;;;;;;5073501;28;20322;-62
2023/01/11 11:28:25;;;;;;;11.50;3.40;;;20.50;82.50;;;;;;5052296;28;20205;-61
2023/01/11 11:31:14;;;;;;;13.38;3.13;;;20.60;82.80;;;;;;5065561;28;20204;-63
2023/01/11 11:34:05;;;;;;;23.95;4.07;;;20.60;82.50;;;;;;5055283;28;20280;-67
2023/01/11 11:36:57;;;;;;;17.27;4.03;;;20.70;82.80;;;;;;5058735;28;20204;-63
2023/01/11 11:39:48;;;;;;;15.18;3.92;;;20.70;82.70;;;;;;5072505;28;20304;-63
2023/01/11 11:42:38;;;;;;;12.80;2.67;;;20.80;82.70;;;;;;5072600;28;20228;-60
2023/01/11 11:45:26;;;;;;;13.35;2.92;;;20.80;82.60;;;;;;5073304;28;20229;-62
2023/01/11 11:48:15;;;;;;;11.57;3.25;;;20.80;82.60;;;;;;5072686;28;20211;-62
2023/01/11 11:51:07;;;;;;;15.38;3.30;;;20.90;82.50;;;;;;5072010;28;20212;-65
2023/01/11 11:53:56;;;;;;;15.32;3.60;;;20.90;82.30;;;;;;5072860;28;20272;-63
2023/01/11 11:56:44;;;;;;;12.52;2.47;;;21.00;82.30;;;;;;5072442;28;20217;-61
2023/01/11 11:59:34;;;;;;;18.25;3.00;;;20.90;82.20;;;;;;5070454;28;20696;-68
2023/01/11 12:02:26;;;;;;;11.18;3.30;;;20.90;82.00;;;;;;5072218;28;20205;-61
2023/01/11 12:05:14;;;;;;;17.40;3.55;;;20.90;81.90;;;;;;5062494;28;20193;-61
2023/01/11 12:08:03;;;;;;;13.40;2.97;;;20.90;82.00;;;;;;5072772;28;20632;-62
2023/01/11 12:10:56;;;;;;;12.40;2.67;;;20.90;82.10;;;;;;5073214;28;20229;-62
2023/01/11 12:13:59;;;;;;;14.57;3.03;;;20.80;82.00;;;;;;5075855;28;20204;-63
2023/01/11 12:16:48;;;;;;;11.02;2.53;;;20.70;82.10;;;;;;5075757;28;20364;-62
2023/01/11 12:19:42;;;;;;;15.35;3.25;;;20.70;82.20;;;;;;5075988;28;20219;-61
2023/01/11 12:22:30;;;;;;;14.15;3.63;;;20.60;82.10;;;;;;5077086;28;20211;-62
2023/01/11 12:25:21;;;;;;;19.85;3.40;;;20.50;82.20;;;;;;5057990;28;20248;-63
2023/01/11 12:28:18;;;;;;;31.35;6.38;;;20.50;82.40;;;;;;5076064;28;20618;-62
2023/01/11 12:31:14;;;;;;;13.70;4.45;;;20.40;82.40;;;;;;5075358;28;20271;-62
2023/01/11 12:34:16;;;;;;;20.80;4.00;;;20.40;82.50;;;;;;5074707;28;20196;-62
2023/01/11 12:37:12;;;;;;;16.52;3.70;;;20.30;82.60;;;;;;5055490;28;20221;-64
2023/01/11 12:40:12;;;;;;;23.33;4.97;;;20.20;82.80;;;;;;5055206;28;20356;-62
2023/01/11 12:43:23;;;;;;;22.45;3.70;;;20.20;83.50;;;;;;5055560;28;20212;-61
2023/01/11 12:46:22;;;;;;;22.85;4.50;;;20.20;83.90;;;;;;5055487;28;20324;-62
2023/01/11 12:49:25;;;;;;;25.27;4.35;;;20.20;84.10;;;;;;5055357;28;20220;-62
2023/01/11 12:52:39;;;;;;;26.45;5.35;;;20.20;84.10;;;;;;5055096;28;20271;-62
2023/01/11 12:55:50;;;;;;;18.83;5.45;;;20.10;84.00;;;;;;5054508;28;20355;-62
2023/01/11 12:58:43;;;;;;;22.38;5.03;;;20.50;96.30;;;;;;5054488;28;20208;-62
2023/01/11 13:01:42;;;;;;;17.48;4.45;;;20.30;84.10;;;;;;5054027;28;20278;-61
2023/01/11 13:04:44;;;;;;;15.60;4.28;;;20.40;83.90;;;;;;5054968;28;20197;-66
2023/01/11 13:07:45;;;;;;;26.05;5.47;;;20.40;83.80;;;;;;5069094;28;20228;-61
2023/01/11 13:10:46;;;;;;;20.90;5.13;;;20.50;84.50;;;;;;5070814;28;20261;-63
2023/01/11 13:13:46;;;;;;;28.98;5.03;;;20.50;83.80;;;;;;5067919;28;20289;-64
2023/01/11 13:16:43;;;;;;;19.77;4.72;;;20.60;83.70;;;;;;5056263;28;20300;-61
2023/01/11 13:19:38;;;;;;;27.65;6.75;;;20.60;83.70;;;;;;5063538;28;20266;-63
2023/01/11 13:22:30;;;;;;;22.85;5.47;;;20.70;83.60;;;;;;5054777;28;20284;-63
2023/01/11 13:25:22;;;;;;;30.55;6.43;;;20.70;83.40;;;;;;5060624;28;20323;-63
2023/01/11 13:28:20;;;;;;;28.27;5.70;;;20.70;83.30;;;;;;5069108;28;20279;-63
2023/01/11 13:31:13;;;;;;;28.52;6.53;;;20.80;83.30;;;;;;5072959;28;20302;-61
2023/01/11 13:34:06;;;;;;;33.08;5.20;;;20.80;83.20;;;;;;5075053;28;20201;-62
2023/01/11 13:36:59;;;;;;;28.77;5.60;;;20.80;83.30;;;;;;5075706;28;20297;-62
2023/01/11 13:39:53;;;;;;;27.60;5.45;;;20.80;83.10;;;;;;5074348;28;20332;-62
2023/01/11 13:42:45;;;;;;;46.20;8.07;;;20.80;83.00;;;;;;5064859;28;20317;-62
2023/01/11 13:45:38;;;;;;;21.98;6.15;;;20.90;83.00;;;;;;5070953;28;20676;-62
2023/01/11 13:48:31;;;;;;;23.45;5.90;;;21.00;93.00;;;;;;5074633;28;20211;-63
2023/01/11 13:51:26;;;;;;;44.70;8.15;;;21.00;83.00;;;;;;5065046;28;20192;-60
2023/01/11 15:30:36;;;;;;;33.85;7.82;;;21.50;82.80;;;;;;2956553;22;20226;-61
2023/01/11 15:33:28;;;;;;;38.22;8.02;;;21.40;82.70;;;;;;5033686;28;20197;-61
2023/01/11 15:36:16;;;;;;;39.78;7.55;;;21.40;82.70;;;;;;5032795;28;20217;-61
2023/01/11 15:39:07;;;;;;;34.78;8.75;;;21.40;82.60;;;;;;5033218;28;20228;-62
2023/01/11 15:42:08;;;;;;;33.05;9.07;;;21.40;82.70;;;;;;5034505;28;20553;-63
2023/01/11 15:45:23;;;;;;;22.15;6.65;;;21.40;82.70;;;;;;5034464;28;20684;-62
2023/01/11 15:48:27;;;;;;;26.40;7.60;;;21.40;82.70;;;;;;5037751;28;20619;-66
2023/01/11 15:51:33;;;;;;;32.80;7.90;;;21.40;82.70;;;;;;5036387;28;20279;-62
2023/01/11 15:54:46;;;;;;;36.55;7.82;;;21.40;82.80;;;;;;5036439;28;20202;-61
2023/01/11 15:57:55;;;;;;;36.15;7.22;;;21.40;82.80;;;;;;5036141;28;20694;-62
2023/01/11 16:01:17;;;;;;;30.20;7.32;;;21.30;82.70;;;;;;5037464;28;20292;-62
2023/01/11 16:04:23;;;;;;;22.67;6.38;;;21.40;82.70;;;;;;5036117;28;20221;-63
2023/01/11 16:07:25;;;;;;;30.92;7.05;;;21.40;82.60;;;;;;5036186;28;20201;-63
2023/01/11 16:10:35;;;;;;;31.52;7.70;;;21.40;82.70;;;;;;5037784;28;20610;-63
2023/01/11 16:13:36;;;;;;;27.15;5.90;;;21.40;82.70;;;;;;5036416;28;20205;-64
2023/01/11 16:16:27;;;;;;;23.88;6.35;;;21.40;82.60;;;;;;5037107;28;20779;-63
2023/01/11 16:19:19;;;;;;;35.35;7.45;;;21.40;82.70;;;;;;5035458;28;20226;-69
2023/01/11 16:22:13;;;;;;;20.48;6.00;;;21.40;82.50;;;;;;5035709;28;20343;-63
2023/01/11 16:25:06;;;;;;;31.55;7.05;;;21.40;82.60;;;;;;5036318;28;20281;-63
2023/01/11 16:27:57;;;;;;;27.23;6.55;;;21.40;82.70;;;;;;5034099;28;20190;-62
2023/01/11 16:30:46;;;;;;;26.55;5.63;;;21.40;82.70;;;;;;5035446;28;20275;-63
2023/01/11 16:33:34;;;;;;;29.58;6.95;;;21.40;82.80;;;;;;5029365;28;20207;-62
2023/01/11 16:36:23;;;;;;;24.27;6.10;;;21.40;82.90;;;;;;5030898;28;20281;-63
2023/01/11 16:39:13;;;;;;;35.55;6.75;;;21.40;82.70;;;;;;5035226;28;20249;-62
2023/01/11 16:42:05;;;;;;;24.73;6.15;;;21.40;82.70;;;;;;5037154;28;20198;-63
2023/01/11 16:44:58;;;;;;;25.70;7.05;;;21.30;82.60;;;;;;5036338;28;20198;-62
2023/01/11 16:48:02;;;;;;;29.83;6.03;;;21.30;82.70;;;;;;5037307;28;20288;-62
2023/01/11 16:50:59;;;;;;;18.55;5.05;;;21.20;82.70;;;;;;5036460;28;20202;-64